ADDS METAR Data INFO
IDs: Format: Raw Decoded Include TAF

Data at: 0342 UTC 19 Jul 2018

KCWI 190256Z AUTO 13006KT 10SM CLR 21/17 A3004 RMK AO2 SLP188 T02110172 53004
KCWI 182356Z AUTO 14007KT 10SM CLR 26/17 A3003 RMK AO2 SLP184 T02560172 10278 20256 56013
KCWI 182256Z AUTO 15008KT 10SM BKN042 BKN050 27/17 A3003 RMK AO2 SLP186 T02670172
KCWI 182156Z AUTO 15007KT 10SM FEW043 27/17 A3005 RMK AO2 SLP192 T02670172
KCWI 182056Z AUTO 15007KT 10SM FEW043 28/18 A3006 RMK AO2 SLP195 T02780178 57015
KCWI 181956Z AUTO 13005KT 10SM BKN042 26/18 A3008 RMK AO2 SLP203 T02610183
KCWI 181856Z AUTO 15006KT 10SM FEW055 27/17 A3009 RMK AO2 SLP204 T02720172
KCWI 181656Z AUTO 15007KT 10SM BKN055 25/18 A3013 RMK AO2 SLP217 T02500178
KCWI 181556Z AUTO 14006KT 10SM OVC050 24/17 A3013 RMK AO2 SLP220 T02390172
KCWI 181456Z AUTO 16008KT 10SM SCT055 23/17 A3013 RMK AO2 SLP217 T02330172 58002
KCWI 181356Z AUTO 15008KT 10SM CLR 22/17 A3013 RMK AO2 SLP219 T02220167
KCWI 181256Z AUTO 11007KT 10SM FEW055 21/17 A3014 RMK AO2 SLP220 T02060167
KCWI 181156Z AUTO 13006KT 10SM CLR 19/16 A3013 RMK AO2 SLP218 T01890161 10194 20167 53002
KCWI 181056Z AUTO 11004KT 10SM CLR 17/16 A3013 RMK AO2 SLP218 T01670156
KCWI 180956Z AUTO 13006KT 10SM FEW050 18/16 A3013 RMK AO2 SLP216 T01780156
KCWI 180856Z AUTO 14007KT 10SM FEW060 18/16 A3012 RMK AO2 SLP215 T01830156 51005
KCWI 180756Z AUTO 14007KT 10SM CLR 18/16 A3012 RMK AO2 SLP216 T01830156
KCWI 180656Z AUTO 13009KT 10SM BKN060 19/16 A3012 RMK AO2 SLP212 T01940161
KCWI 180556Z AUTO 09004KT 10SM FEW060 18/16 A3011 RMK AO2 SLP211 T01830161 10272 20183 402940167 51009
KCWI 180456Z AUTO 08005KT 10SM CLR 19/17 A3010 RMK AO2 SLP208 T01890172
KCWI 180356Z AUTO 07006KT 10SM CLR 20/18 A3010 RMK AO2 SLP206 T02000178
KCWI 180256Z AUTO 07005KT 10SM CLR 21/19 A3008 RMK AO2 SLP202 T02060189 53004
KCWI 180156Z AUTO 02004KT 10SM CLR 23/19 A3007 RMK AO2 SLP197 T02280194
KCWI 180056Z AUTO 02005KT 10SM CLR 25/20 A3007 RMK AO2 SLP196 T02500200
KCWI 172356Z AUTO 02005KT 10SM CLR 27/19 A3007 RMK AO2 SLP197 T02720189 10294 20272 55002
KCWI 172256Z AUTO 01008KT 10SM CLR 28/19 A3007 RMK AO2 SLP197 T02830189
KCWI 172156Z AUTO 01009KT 10SM FEW065 29/19 A3007 RMK AO2 SLP198 T02890194
KCWI 172056Z AUTO 01008KT 10SM FEW055 29/19 A3008 RMK AO2 SLP199 T02890189 56009
KCWI 171956Z AUTO 33008KT 10SM BKN055 28/19 A3008 RMK AO2 SLP200 T02830189
KCWI 171856Z AUTO 30003KT 10SM SCT050 28/18 A3009 RMK AO2 SLP206 T02830183
KCWI 171756Z AUTO 33006KT 10SM FEW049 28/18 A3010 RMK AO2 SLP209 T02830183 10283 20189 58001
KCWI 171656Z AUTO 34006KT 10SM CLR 27/18 A3011 RMK AO2 SLP212 T02720183
KCWI 171556Z AUTO 34004KT 10SM CLR 26/19 A3010 RMK AO2 SLP209 T02610194